sensor_id;sensor_type;location;lat;lon;timestamp;pressure;altitude;pressure_sealevel;temperature;humidity
70338;BME280;57757;53.198;19.646;2022-10-14T00:01:17;100486.71;;;8.34;56.38
70338;BME280;57757;53.198;19.646;2022-10-14T00:03:59;100484.65;;;8.32;56.24
70338;BME280;57757;53.198;19.646;2022-10-14T00:06:29;100487.09;;;8.30;56.34
70338;BME280;57757;53.198;19.646;2022-10-14T00:09:04;100485.71;;;8.27;56.36
70338;BME280;57757;53.198;19.646;2022-10-14T00:11:33;100484.54;;;8.23;56.46
70338;BME280;57757;53.198;19.646;2022-10-14T00:14:06;100484.90;;;8.21;56.53
70338;BME280;57757;53.198;19.646;2022-10-14T00:16:37;100483.53;;;8.19;56.53
70338;BME280;57757;53.198;19.646;2022-10-14T00:19:06;100484.59;;;8.16;56.41
70338;BME280;57757;53.198;19.646;2022-10-14T00:21:35;100480.27;;;8.16;56.64
70338;BME280;57757;53.198;19.646;2022-10-14T00:24:04;100477.67;;;8.15;56.72
70338;BME280;57757;53.198;19.646;2022-10-14T00:26:34;100475.08;;;8.14;56.64
70338;BME280;57757;53.198;19.646;2022-10-14T00:29:05;100470.94;;;8.12;56.81
70338;BME280;57757;53.198;19.646;2022-10-14T00:31:33;100472.88;;;8.09;56.76
70338;BME280;57757;53.198;19.646;2022-10-14T00:34:01;100471.69;;;8.06;56.82
70338;BME280;57757;53.198;19.646;2022-10-14T00:36:29;100468.76;;;8.04;56.85
70338;BME280;57757;53.198;19.646;2022-10-14T00:38:56;100463.40;;;8.02;56.97
70338;BME280;57757;53.198;19.646;2022-10-14T00:41:26;100461.49;;;8.03;56.94
70338;BME280;57757;53.198;19.646;2022-10-14T00:44:56;100459.08;;;8.04;56.95
70338;BME280;57757;53.198;19.646;2022-10-14T00:46:55;100457.35;;;8.04;57.12
70338;BME280;57757;53.198;19.646;2022-10-14T00:49:26;100456.98;;;8.03;57.17
70338;BME280;57757;53.198;19.646;2022-10-14T00:51:57;100454.22;;;8.02;57.18
70338;BME280;57757;53.198;19.646;2022-10-14T00:54:38;100452.48;;;8.01;57.31
70338;BME280;57757;53.198;19.646;2022-10-14T00:57:08;100449.75;;;8.00;57.30
70338;BME280;57757;53.198;19.646;2022-10-14T00:59:37;100449.23;;;7.99;57.19
70338;BME280;57757;53.198;19.646;2022-10-14T01:02:05;100447.50;;;7.97;57.18
70338;BME280;57757;53.198;19.646;2022-10-14T01:04:34;100446.83;;;7.97;57.36
70338;BME280;57757;53.198;19.646;2022-10-14T01:07:15;100447.33;;;7.97;57.27
70338;BME280;57757;53.198;19.646;2022-10-14T01:15:54;100443.38;;;7.96;57.68
70338;BME280;57757;53.198;19.646;2022-10-14T01:21:09;100440.81;;;7.92;57.49
70338;BME280;57757;53.198;19.646;2022-10-14T01:27:32;100431.81;;;7.92;57.81
70338;BME280;57757;53.198;19.646;2022-10-14T01:36:56;100416.78;;;7.86;57.92
70338;BME280;57757;53.198;19.646;2022-10-14T01:41:54;100411.65;;;7.81;57.89
70338;BME280;57757;53.198;19.646;2022-10-14T01:44:25;100414.59;;;7.80;58.03
70338;BME280;57757;53.198;19.646;2022-10-14T01:46:54;100416.67;;;7.79;58.13
70338;BME280;57757;53.198;19.646;2022-10-14T01:49:34;100418.25;;;7.77;58.11
70338;BME280;57757;53.198;19.646;2022-10-14T01:52:09;100415.85;;;7.75;58.18
70338;BME280;57757;53.198;19.646;2022-10-14T01:54:40;100415.16;;;7.75;58.30
70338;BME280;57757;53.198;19.646;2022-10-14T01:57:13;100408.05;;;7.75;58.31
70338;BME280;57757;53.198;19.646;2022-10-14T01:59:43;100407.70;;;7.75;58.24
70338;BME280;57757;53.198;19.646;2022-10-14T02:02:12;100404.23;;;7.75;58.21
70338;BME280;57757;53.198;19.646;2022-10-14T02:04:40;100405.48;;;7.74;58.36
70338;BME280;57757;53.198;19.646;2022-10-14T02:07:16;100404.27;;;7.72;58.29
70338;BME280;57757;53.198;19.646;2022-10-14T02:09:58;100406.90;;;7.68;58.41
70338;BME280;57757;53.198;19.646;2022-10-14T02:15:32;100407.97;;;7.64;58.48
70338;BME280;57757;53.198;19.646;2022-10-14T02:18:32;100409.71;;;7.62;58.41
70338;BME280;57757;53.198;19.646;2022-10-14T02:21:01;100409.56;;;7.62;58.51
70338;BME280;57757;53.198;19.646;2022-10-14T02:23:35;100410.42;;;7.61;58.71
70338;BME280;57757;53.198;19.646;2022-10-14T02:26:05;100411.83;;;7.58;58.62
70338;BME280;57757;53.198;19.646;2022-10-14T02:28:34;100406.67;;;7.55;58.73
70338;BME280;57757;53.198;19.646;2022-10-14T02:31:06;100403.91;;;7.52;58.86
70338;BME280;57757;53.198;19.646;2022-10-14T02:33:38;100402.55;;;7.50;58.75
70338;BME280;57757;53.198;19.646;2022-10-14T02:36:10;100400.99;;;7.49;58.75
70338;BME280;57757;53.198;19.646;2022-10-14T02:38:41;100398.91;;;7.49;58.82
70338;BME280;57757;53.198;19.646;2022-10-14T02:41:13;100396.34;;;7.47;58.93
70338;BME280;57757;53.198;19.646;2022-10-14T02:43:43;100392.71;;;7.47;59.10
70338;BME280;57757;53.198;19.646;2022-10-14T02:46:11;100391.33;;;7.45;59.03
70338;BME280;57757;53.198;19.646;2022-10-14T02:48:38;100388.77;;;7.42;59.06
70338;BME280;57757;53.198;19.646;2022-10-14T02:51:06;100392.40;;;7.40;59.00
70338;BME280;57757;53.198;19.646;2022-10-14T02:53:33;100391.38;;;7.40;59.13
70338;BME280;57757;53.198;19.646;2022-10-14T02:56:01;100392.42;;;7.39;58.98
70338;BME280;57757;53.198;19.646;2022-10-14T02:58:29;100391.89;;;7.40;59.25
70338;BME280;57757;53.198;19.646;2022-10-14T03:00:56;100392.40;;;7.40;59.35
70338;BME280;57757;53.198;19.646;2022-10-14T03:03:24;100389.84;;;7.38;59.36
70338;BME280;57757;53.198;19.646;2022-10-14T03:05:51;100391.05;;;7.37;59.36
70338;BME280;57757;53.198;19.646;2022-10-14T03:08:19;100392.60;;;7.37;59.39
70338;BME280;57757;53.198;19.646;2022-10-14T03:10:47;100390.71;;;7.36;59.31
70338;BME280;57757;53.198;19.646;2022-10-14T03:13:15;100386.20;;;7.37;59.50
70338;BME280;57757;53.198;19.646;2022-10-14T03:15:43;100388.11;;;7.37;59.41
70338;BME280;57757;53.198;19.646;2022-10-14T03:18:10;100383.46;;;7.36;59.37
70338;BME280;57757;53.198;19.646;2022-10-14T03:20:38;100379.31;;;7.35;59.46
70338;BME280;57757;53.198;19.646;2022-10-14T03:23:05;100380.01;;;7.35;59.68
70338;BME280;57757;53.198;19.646;2022-10-14T03:25:33;100375.50;;;7.33;59.69
70338;BME280;57757;53.198;19.646;2022-10-14T03:28:01;100373.63;;;7.30;59.61
70338;BME280;57757;53.198;19.646;2022-10-14T03:30:28;100371.23;;;7.27;59.64
70338;BME280;57757;53.198;19.646;2022-10-14T03:32:56;100369.33;;;7.26;59.66
70338;BME280;57757;53.198;19.646;2022-10-14T03:35:24;100371.92;;;7.25;59.70
70338;BME280;57757;53.198;19.646;2022-10-14T03:37:52;100370.89;;;7.25;59.81
70338;BME280;57757;53.198;19.646;2022-10-14T03:40:21;100368.48;;;7.23;59.92
70338;BME280;57757;53.198;19.646;2022-10-14T03:42:49;100375.41;;;7.22;59.91
70338;BME280;57757;53.198;19.646;2022-10-14T03:45:16;100376.83;;;7.17;59.88
70338;BME280;57757;53.198;19.646;2022-10-14T03:47:44;100375.98;;;7.16;59.96
70338;BME280;57757;53.198;19.646;2022-10-14T03:50:11;100375.63;;;7.17;60.03
70338;BME280;57757;53.198;19.646;2022-10-14T03:52:39;100372.84;;;7.18;59.98
70338;BME280;57757;53.198;19.646;2022-10-14T03:55:12;100369.89;;;7.20;60.11
70338;BME280;57757;53.198;19.646;2022-10-14T03:57:40;100365.73;;;7.21;60.19
70338;BME280;57757;53.198;19.646;2022-10-14T04:00:08;100360.73;;;7.19;60.20
70338;BME280;57757;53.198;19.646;2022-10-14T04:02:36;100360.73;;;7.18;60.33
70338;BME280;57757;53.198;19.646;2022-10-14T04:05:04;100357.63;;;7.17;60.20
70338;BME280;57757;53.198;19.646;2022-10-14T04:07:31;100354.19;;;7.16;60.26
70338;BME280;57757;53.198;19.646;2022-10-14T04:09:59;100356.09;;;7.16;60.26
70338;BME280;57757;53.198;19.646;2022-10-14T04:12:26;100353.15;;;7.16;60.25
70338;BME280;57757;53.198;19.646;2022-10-14T04:14:54;100355.23;;;7.16;60.32
70338;BME280;57757;53.198;19.646;2022-10-14T04:17:24;100350.21;;;7.15;60.37
70338;BME280;57757;53.198;19.646;2022-10-14T04:19:52;100345.72;;;7.14;60.36
70338;BME280;57757;53.198;19.646;2022-10-14T04:22:19;100344.33;;;7.13;60.41
70338;BME280;57757;53.198;19.646;2022-10-14T04:24:49;100344.34;;;7.14;60.43
70338;BME280;57757;53.198;19.646;2022-10-14T04:27:17;100342.11;;;7.12;60.55
70338;BME280;57757;53.198;19.646;2022-10-14T04:29:45;100339.49;;;7.13;60.49
70338;BME280;57757;53.198;19.646;2022-10-14T04:32:13;100340.02;;;7.14;60.38
70338;BME280;57757;53.198;19.646;2022-10-14T04:34:40;100339.46;;;7.19;60.43
70338;BME280;57757;53.198;19.646;2022-10-14T04:37:08;100339.95;;;7.22;60.61
70338;BME280;57757;53.198;19.646;2022-10-14T04:39:36;100337.15;;;7.26;60.71
70338;BME280;57757;53.198;19.646;2022-10-14T04:42:03;100330.73;;;7.28;60.77
70338;BME280;57757;53.198;19.646;2022-10-14T04:44:31;100326.75;;;7.31;60.59
70338;BME280;57757;53.198;19.646;2022-10-14T04:46:58;100326.41;;;7.29;60.60
70338;BME280;57757;53.198;19.646;2022-10-14T04:49:26;100325.57;;;7.27;60.59
70338;BME280;57757;53.198;19.646;2022-10-14T04:51:53;100327.13;;;7.26;60.59
70338;BME280;57757;53.198;19.646;2022-10-14T04:54:21;100324.73;;;7.22;60.62
70338;BME280;57757;53.198;19.646;2022-10-14T04:56:48;100320.95;;;7.20;60.50
70338;BME280;57757;53.198;19.646;2022-10-14T04:59:16;100322.66;;;7.21;60.72
70338;BME280;57757;53.198;19.646;2022-10-14T05:01:43;100319.05;;;7.20;60.85
70338;BME280;57757;53.198;19.646;2022-10-14T05:04:11;100311.95;;;7.20;60.97
70338;BME280;57757;53.198;19.646;2022-10-14T05:06:39;100309.71;;;7.18;60.89
70338;BME280;57757;53.198;19.646;2022-10-14T05:09:07;100313.17;;;7.17;61.00
70338;BME280;57757;53.198;19.646;2022-10-14T05:11:34;100311.82;;;7.16;60.91
70338;BME280;57757;53.198;19.646;2022-10-14T05:14:02;100312.52;;;7.16;60.99
70338;BME280;57757;53.198;19.646;2022-10-14T05:16:29;100316.32;;;7.16;61.09
70338;BME280;57757;53.198;19.646;2022-10-14T05:18:57;100315.61;;;7.17;61.24
70338;BME280;57757;53.198;19.646;2022-10-14T05:21:25;100311.13;;;7.15;61.32
70338;BME280;57757;53.198;19.646;2022-10-14T05:23:52;100309.57;;;7.15;61.21
70338;BME280;57757;53.198;19.646;2022-10-14T05:26:20;100312.33;;;7.14;61.22
70338;BME280;57757;53.198;19.646;2022-10-14T05:28:47;100315.10;;;7.15;61.26
70338;BME280;57757;53.198;19.646;2022-10-14T05:31:17;100312.68;;;7.15;61.20
70338;BME280;57757;53.198;19.646;2022-10-14T05:33:45;100313.01;;;7.17;61.18
70338;BME280;57757;53.198;19.646;2022-10-14T05:36:12;100307.98;;;7.19;61.25
70338;BME280;57757;53.198;19.646;2022-10-14T05:38:40;100313.65;;;7.24;61.41
70338;BME280;57757;53.198;19.646;2022-10-14T05:41:08;100313.27;;;7.27;61.45
70338;BME280;57757;53.198;19.646;2022-10-14T05:43:35;100314.64;;;7.30;61.52
70338;BME280;57757;53.198;19.646;2022-10-14T05:46:03;100310.30;;;7.33;61.46
70338;BME280;57757;53.198;19.646;2022-10-14T05:48:31;100316.66;;;7.36;61.52
70338;BME280;57757;53.198;19.646;2022-10-14T05:51:02;100315.42;;;7.39;61.37
70338;BME280;57757;53.198;19.646;2022-10-14T05:53:31;100311.43;;;7.41;61.48
70338;BME280;57757;53.198;19.646;2022-10-14T05:56:07;100313.14;;;7.44;61.47
70338;BME280;57757;53.198;19.646;2022-10-14T05:58:34;100315.38;;;7.45;61.58
70338;BME280;57757;53.198;19.646;2022-10-14T06:01:03;100319.18;;;7.46;61.52
70338;BME280;57757;53.198;19.646;2022-10-14T06:03:32;100317.44;;;7.47;61.48
70338;BME280;57757;53.198;19.646;2022-10-14T06:06:00;100317.76;;;7.50;61.57
70338;BME280;57757;53.198;19.646;2022-10-14T06:08:27;100319.94;;;7.57;61.69
70338;BME280;57757;53.198;19.646;2022-10-14T06:10:55;100322.65;;;7.64;61.65
70338;BME280;57757;53.198;19.646;2022-10-14T06:13:23;100320.18;;;7.69;61.73
70338;BME280;57757;53.198;19.646;2022-10-14T06:15:50;100317.54;;;7.73;61.58
70338;BME280;57757;53.198;19.646;2022-10-14T06:18:18;100318.04;;;7.75;61.58
70338;BME280;57757;53.198;19.646;2022-10-14T06:20:52;100316.08;;;7.80;61.83
70338;BME280;57757;53.198;19.646;2022-10-14T06:23:20;100317.21;;;7.88;61.75
70338;BME280;57757;53.198;19.646;2022-10-14T06:25:48;100319.05;;;7.94;61.63
70338;BME280;57757;53.198;19.646;2022-10-14T06:28:16;100316.73;;;8.00;61.78
70338;BME280;57757;53.198;19.646;2022-10-14T06:30:50;100317.00;;;8.07;61.73
70338;BME280;57757;53.198;19.646;2022-10-14T06:33:19;100317.64;;;8.13;61.95
70338;BME280;57757;53.198;19.646;2022-10-14T06:35:47;100315.65;;;8.20;61.89
70338;BME280;57757;53.198;19.646;2022-10-14T06:38:15;100319.21;;;8.26;61.80
70338;BME280;57757;53.198;19.646;2022-10-14T06:40:42;100317.80;;;8.31;61.80
70338;BME280;57757;53.198;19.646;2022-10-14T06:43:10;100312.73;;;8.35;61.67
70338;BME280;57757;53.198;19.646;2022-10-14T06:45:38;100310.77;;;8.39;61.63
70338;BME280;57757;53.198;19.646;2022-10-14T06:48:05;100316.79;;;8.42;61.67
70338;BME280;57757;53.198;19.646;2022-10-14T06:50:33;100318.32;;;8.45;61.68
70338;BME280;57757;53.198;19.646;2022-10-14T06:53:01;100325.23;;;8.47;61.76
70338;BME280;57757;53.198;19.646;2022-10-14T06:55:29;100333.52;;;8.48;61.76
70338;BME280;57757;53.198;19.646;2022-10-14T06:57:56;100330.45;;;8.46;61.70
70338;BME280;57757;53.198;19.646;2022-10-14T07:00:24;100334.60;;;8.46;61.83
70338;BME280;57757;53.198;19.646;2022-10-14T07:02:52;100340.63;;;8.48;61.78
70338;BME280;57757;53.198;19.646;2022-10-14T07:05:19;100341.80;;;8.53;61.76
70338;BME280;57757;53.198;19.646;2022-10-14T07:07:47;100340.86;;;8.58;61.70
70338;BME280;57757;53.198;19.646;2022-10-14T07:10:14;100343.00;;;8.67;61.85
70338;BME280;57757;53.198;19.646;2022-10-14T07:12:42;100338.16;;;8.78;61.91
70338;BME280;57757;53.198;19.646;2022-10-14T07:15:10;100338.32;;;8.92;62.13
70338;BME280;57757;53.198;19.646;2022-10-14T07:17:38;100336.94;;;9.02;62.13
70338;BME280;57757;53.198;19.646;2022-10-14T07:20:06;100331.23;;;9.13;61.90
70338;BME280;57757;53.198;19.646;2022-10-14T07:22:34;100336.05;;;9.27;62.08
70338;BME280;57757;53.198;19.646;2022-10-14T07:25:06;100331.12;;;9.41;61.94
70338;BME280;57757;53.198;19.646;2022-10-14T07:27:33;100326.55;;;9.56;61.84
70338;BME280;57757;53.198;19.646;2022-10-14T07:30:01;100318.36;;;9.68;61.93
70338;BME280;57757;53.198;19.646;2022-10-14T07:32:30;100322.27;;;9.82;61.89
70338;BME280;57757;53.198;19.646;2022-10-14T07:34:58;100319.33;;;9.90;61.60
70338;BME280;57757;53.198;19.646;2022-10-14T07:37:25;100318.30;;;9.98;61.97
70338;BME280;57757;53.198;19.646;2022-10-14T07:39:52;100319.19;;;10.07;61.77
70338;BME280;57757;53.198;19.646;2022-10-14T07:42:20;100312.12;;;10.14;61.60
70338;BME280;57757;53.198;19.646;2022-10-14T07:44:47;100309.68;;;10.24;61.77
70338;BME280;57757;53.198;19.646;2022-10-14T07:47:15;100308.39;;;10.36;61.74
70338;BME280;57757;53.198;19.646;2022-10-14T07:49:43;100308.63;;;10.50;61.74
70338;BME280;57757;53.198;19.646;2022-10-14T07:52:10;100314.07;;;10.64;61.76
70338;BME280;57757;53.198;19.646;2022-10-14T07:54:38;100312.09;;;10.74;61.61
70338;BME280;57757;53.198;19.646;2022-10-14T07:57:06;100310.50;;;10.83;61.64
70338;BME280;57757;53.198;19.646;2022-10-14T07:59:33;100307.21;;;10.90;61.64
70338;BME280;57757;53.198;19.646;2022-10-14T08:02:02;100304.73;;;11.00;61.63
70338;BME280;57757;53.198;19.646;2022-10-14T08:04:30;100308.90;;;11.07;61.60
70338;BME280;57757;53.198;19.646;2022-10-14T08:06:58;100310.33;;;11.13;61.49
70338;BME280;57757;53.198;19.646;2022-10-14T08:09:25;100312.31;;;11.17;61.27
70338;BME280;57757;53.198;19.646;2022-10-14T08:11:53;100308.34;;;11.23;61.32
70338;BME280;57757;53.198;19.646;2022-10-14T08:14:20;100308.11;;;11.33;61.43
70338;BME280;57757;53.198;19.646;2022-10-14T08:16:48;100308.17;;;11.44;61.49
70338;BME280;57757;53.198;19.646;2022-10-14T08:19:16;100307.95;;;11.53;61.42
70338;BME280;57757;53.198;19.646;2022-10-14T08:21:44;100304.80;;;11.60;61.29
70338;BME280;57757;53.198;19.646;2022-10-14T08:24:11;100305.84;;;11.67;61.41
70338;BME280;57757;53.198;19.646;2022-10-14T08:26:47;100307.40;;;11.75;61.43
70338;BME280;57757;53.198;19.646;2022-10-14T08:29:15;100309.98;;;11.83;61.28
70338;BME280;57757;53.198;19.646;2022-10-14T08:31:43;100308.40;;;11.90;61.25
70338;BME280;57757;53.198;19.646;2022-10-14T08:34:10;100305.85;;;11.94;61.03
70338;BME280;57757;53.198;19.646;2022-10-14T08:36:38;100301.66;;;12.00;61.07
70338;BME280;57757;53.198;19.646;2022-10-14T08:39:06;100299.19;;;12.08;61.16
70338;BME280;57757;53.198;19.646;2022-10-14T08:44:24;100299.58;;;12.19;60.88
70338;BME280;57757;53.198;19.646;2022-10-14T08:47:03;100299.64;;;12.29;61.07
70338;BME280;57757;53.198;19.646;2022-10-14T08:52:10;100299.61;;;12.54;61.03
70338;BME280;57757;53.198;19.646;2022-10-14T08:54:43;100298.88;;;12.66;60.87
70338;BME280;57757;53.198;19.646;2022-10-14T08:57:15;100300.23;;;12.80;61.01
70338;BME280;57757;53.198;19.646;2022-10-14T08:59:44;100301.27;;;12.91;60.90
70338;BME280;57757;53.198;19.646;2022-10-14T09:04:57;100304.95;;;13.02;60.59
70338;BME280;57757;53.198;19.646;2022-10-14T09:07:25;100303.35;;;13.09;60.72
70338;BME280;57757;53.198;19.646;2022-10-14T09:09:56;100302.16;;;13.19;60.64
70338;BME280;57757;53.198;19.646;2022-10-14T09:12:27;100295.34;;;13.30;60.69
70338;BME280;57757;53.198;19.646;2022-10-14T09:18:20;100290.09;;;13.56;60.54
70338;BME280;57757;53.198;19.646;2022-10-14T09:20:51;100290.56;;;13.63;60.26
70338;BME280;57757;53.198;19.646;2022-10-14T09:23:21;100289.30;;;13.69;60.37
70338;BME280;57757;53.198;19.646;2022-10-14T09:26:10;100292.61;;;13.79;60.34
70338;BME280;57757;53.198;19.646;2022-10-14T09:28:44;100287.58;;;13.88;60.29
70338;BME280;57757;53.198;19.646;2022-10-14T09:31:13;100287.58;;;13.94;60.15
70338;BME280;57757;53.198;19.646;2022-10-14T09:33:41;100286.69;;;13.99;60.02
70338;BME280;57757;53.198;19.646;2022-10-14T09:36:17;100285.53;;;14.02;60.08
70338;BME280;57757;53.198;19.646;2022-10-14T09:38:47;100284.30;;;14.07;59.99
70338;BME280;57757;53.198;19.646;2022-10-14T09:41:22;100278.51;;;14.12;59.90
70338;BME280;57757;53.198;19.646;2022-10-14T09:46:46;100277.65;;;14.30;59.81
70338;BME280;57757;53.198;19.646;2022-10-14T09:49:37;100280.50;;;14.39;59.88
70338;BME280;57757;53.198;19.646;2022-10-14T09:52:04;100273.81;;;14.54;59.93
70338;BME280;57757;53.198;19.646;2022-10-14T09:54:33;100270.70;;;14.75;59.98
70338;BME280;57757;53.198;19.646;2022-10-14T09:57:17;100268.03;;;14.94;59.85
70338;BME280;57757;53.198;19.646;2022-10-14T09:59:51;100260.84;;;15.07;59.67
70338;BME280;57757;53.198;19.646;2022-10-14T10:02:24;100258.48;;;15.34;59.82
70338;BME280;57757;53.198;19.646;2022-10-14T10:04:52;100258.59;;;15.74;59.83
70338;BME280;57757;53.198;19.646;2022-10-14T10:07:27;100257.71;;;16.13;59.80
70338;BME280;57757;53.198;19.646;2022-10-14T10:09:58;100253.20;;;16.50;59.53
70338;BME280;57757;53.198;19.646;2022-10-14T10:12:31;100254.61;;;16.80;59.21
70338;BME280;57757;53.198;19.646;2022-10-14T10:15:01;100253.23;;;17.12;59.01
70338;BME280;57757;53.198;19.646;2022-10-14T10:17:36;100251.73;;;17.38;58.82
70338;BME280;57757;53.198;19.646;2022-10-14T10:22:55;100244.26;;;18.08;58.66
70338;BME280;57757;53.198;19.646;2022-10-14T10:25:24;100246.14;;;18.38;58.41
70338;BME280;57757;53.198;19.646;2022-10-14T10:27:56;100244.29;;;18.66;58.12
70338;BME280;57757;53.198;19.646;2022-10-14T10:30:32;100250.52;;;18.81;57.72
70338;BME280;57757;53.198;19.646;2022-10-14T10:33:31;100251.94;;;18.77;57.29
70338;BME280;57757;53.198;19.646;2022-10-14T10:38:57;100242.99;;;19.10;57.28
70338;BME280;57757;53.198;19.646;2022-10-14T10:50:36;100246.17;;;20.08;56.88
70338;BME280;57757;53.198;19.646;2022-10-14T10:56:10;100244.38;;;20.59;55.75
70338;BME280;57757;53.198;19.646;2022-10-14T10:58:46;100242.14;;;20.55;55.84
70338;BME280;57757;53.198;19.646;2022-10-14T11:19:17;100223.19;;;21.68;54.76
70338;BME280;57757;53.198;19.646;2022-10-14T11:28:00;100213.14;;;21.36;53.95
70338;BME280;57757;53.198;19.646;2022-10-14T11:30:52;100207.71;;;21.43;53.91
70338;BME280;57757;53.198;19.646;2022-10-14T11:39:20;100199.38;;;21.87;53.44
70338;BME280;57757;53.198;19.646;2022-10-14T11:44:42;100199.78;;;22.07;53.09
70338;BME280;57757;53.198;19.646;2022-10-14T11:47:27;100199.45;;;22.16;53.17
70338;BME280;57757;53.198;19.646;2022-10-14T11:50:13;100199.14;;;22.20;52.63
70338;BME280;57757;53.198;19.646;2022-10-14T11:52:49;100198.70;;;22.17;52.63
70338;BME280;57757;53.198;19.646;2022-10-14T11:55:25;100198.43;;;21.95;52.20
70338;BME280;57757;53.198;19.646;2022-10-14T11:58:05;100195.70;;;21.66;52.20
70338;BME280;57757;53.198;19.646;2022-10-14T12:00:38;100199.90;;;21.36;52.06
70338;BME280;57757;53.198;19.646;2022-10-14T12:03:43;100195.30;;;21.09;52.15
70338;BME280;57757;53.198;19.646;2022-10-14T12:06:19;100190.09;;;20.87;52.19
70338;BME280;57757;53.198;19.646;2022-10-14T12:08:53;100192.23;;;20.65;52.28
70338;BME280;57757;53.198;19.646;2022-10-14T12:11:45;100191.61;;;20.47;52.19
70338;BME280;57757;53.198;19.646;2022-10-14T12:14:20;100194.46;;;20.24;52.06
70338;BME280;57757;53.198;19.646;2022-10-14T12:16:50;100191.71;;;20.06;52.18
70338;BME280;57757;53.198;19.646;2022-10-14T12:19:24;100189.66;;;19.94;52.22
70338;BME280;57757;53.198;19.646;2022-10-14T12:22:00;100188.76;;;19.86;52.44
70338;BME280;57757;53.198;19.646;2022-10-14T12:24:35;100189.21;;;19.76;52.38
70338;BME280;57757;53.198;19.646;2022-10-14T12:27:05;100183.98;;;19.69;52.57
70338;BME280;57757;53.198;19.646;2022-10-14T12:29:51;100181.80;;;19.70;52.57
70338;BME280;57757;53.198;19.646;2022-10-14T12:32:23;100179.49;;;19.73;52.48
70338;BME280;57757;53.198;19.646;2022-10-14T12:34:54;100176.79;;;19.74;52.38
70338;BME280;57757;53.198;19.646;2022-10-14T12:45:26;100165.64;;;19.66;52.44
70338;BME280;57757;53.198;19.646;2022-10-14T12:50:39;100163.59;;;20.29;52.75
70338;BME280;57757;53.198;19.646;2022-10-14T12:53:28;100157.57;;;20.73;52.46
70338;BME280;57757;53.198;19.646;2022-10-14T12:55:59;100153.98;;;21.29;52.37
70338;BME280;57757;53.198;19.646;2022-10-14T13:01:20;100149.88;;;22.18;51.82
70338;BME280;57757;53.198;19.646;2022-10-14T13:04:14;100146.46;;;22.67;51.78
70338;BME280;57757;53.198;19.646;2022-10-14T13:12:53;100144.70;;;24.03;50.83
70338;BME280;57757;53.198;19.646;2022-10-14T13:15:57;100143.54;;;24.35;50.67
70338;BME280;57757;53.198;19.646;2022-10-14T13:21:04;100142.13;;;24.84;49.78
70338;BME280;57757;53.198;19.646;2022-10-14T13:23:40;100145.61;;;25.04;50.01
70338;BME280;57757;53.198;19.646;2022-10-14T13:37:39;100142.84;;;26.00;48.12
70338;BME280;57757;53.198;19.646;2022-10-14T13:40:23;100145.94;;;25.87;48.27
70338;BME280;57757;53.198;19.646;2022-10-14T13:42:55;100142.80;;;25.93;48.21
70338;BME280;57757;53.198;19.646;2022-10-14T13:48:20;100141.99;;;25.98;48.09
70338;BME280;57757;53.198;19.646;2022-10-14T13:50:53;100141.94;;;26.19;48.26
70338;BME280;57757;53.198;19.646;2022-10-14T13:53:52;100138.05;;;26.52;47.98
70338;BME280;57757;53.198;19.646;2022-10-14T13:56:29;100139.67;;;26.59;47.43
70338;BME280;57757;53.198;19.646;2022-10-14T13:58:57;100143.77;;;26.59;47.08
70338;BME280;57757;53.198;19.646;2022-10-14T14:01:30;100142.27;;;26.64;47.20
70338;BME280;57757;53.198;19.646;2022-10-14T14:03:59;100140.70;;;26.68;46.90
70338;BME280;57757;53.198;19.646;2022-10-14T14:06:27;100141.27;;;26.67;46.71
70338;BME280;57757;53.198;19.646;2022-10-14T14:09:19;100141.83;;;26.63;46.59
70338;BME280;57757;53.198;19.646;2022-10-14T14:11:50;100142.65;;;26.50;46.20
70338;BME280;57757;53.198;19.646;2022-10-14T14:14:33;100142.36;;;26.36;46.11
70338;BME280;57757;53.198;19.646;2022-10-14T14:17:03;100142.12;;;26.20;46.10
70338;BME280;57757;53.198;19.646;2022-10-14T14:19:33;100142.66;;;26.06;46.01
70338;BME280;57757;53.198;19.646;2022-10-14T14:25:10;100142.80;;;25.54;45.53
70338;BME280;57757;53.198;19.646;2022-10-14T14:28:00;100141.58;;;24.59;45.24
70338;BME280;57757;53.198;19.646;2022-10-14T14:30:34;100146.00;;;23.93;45.53
70338;BME280;57757;53.198;19.646;2022-10-14T14:33:06;100149.39;;;23.46;45.58
70338;BME280;57757;53.198;19.646;2022-10-14T14:35:34;100145.73;;;22.96;45.65
70338;BME280;57757;53.198;19.646;2022-10-14T14:38:02;100142.26;;;22.52;45.67
70338;BME280;57757;53.198;19.646;2022-10-14T14:40:30;100146.80;;;22.11;45.65
70338;BME280;57757;53.198;19.646;2022-10-14T14:43:00;100148.81;;;21.66;45.70
70338;BME280;57757;53.198;19.646;2022-10-14T14:45:32;100145.66;;;21.22;45.84
70338;BME280;57757;53.198;19.646;2022-10-14T14:48:05;100145.27;;;20.83;46.07
70338;BME280;57757;53.198;19.646;2022-10-14T14:50:36;100146.80;;;20.46;46.09
70338;BME280;57757;53.198;19.646;2022-10-14T14:53:11;100149.52;;;20.12;46.31
70338;BME280;57757;53.198;19.646;2022-10-14T14:58:20;100147.66;;;19.80;46.93
70338;BME280;57757;53.198;19.646;2022-10-14T15:00:49;100146.92;;;19.69;46.83
70338;BME280;57757;53.198;19.646;2022-10-14T15:03:18;100147.98;;;19.45;46.85
70338;BME280;57757;53.198;19.646;2022-10-14T15:05:50;100147.41;;;19.23;46.90
70338;BME280;57757;53.198;19.646;2022-10-14T15:08:24;100143.23;;;18.98;46.95
70338;BME280;57757;53.198;19.646;2022-10-14T15:10:54;100141.05;;;18.76;47.18
70338;BME280;57757;53.198;19.646;2022-10-14T15:15:52;100134.71;;;18.28;47.49
70338;BME280;57757;53.198;19.646;2022-10-14T15:18:26;100133.81;;;18.07;47.52
70338;BME280;57757;53.198;19.646;2022-10-14T15:21:17;100133.50;;;17.87;47.66